Alburg, Vermont
Current Conditions -  °F | °C
As of 10:15 AM on Thursday 23 Oct 2014 (Local Time) from KFSO Reporting Station
Drizzle Drizzle  
Wind Chill: 38°   Ceiling: 5000
Heat Index: 44°   Visibility: 10mi
Dew Point: 38°   Wind: 10mph
Humidity: 81%   Direction: 360°N
Pressure: 30"   Gusts: 22mph
Location:  44.9685°N, 73.281°W
Report Text: KFSO 231415Z AUTO 36009G19KT 10SM -DZ OVC050 07/04 A3000 RMK AO2 T00650035
Loading
Personal Weather Stations






























Interactive Weather Map
Tropical Storm Tracking
New forecast layout! Learn more

10-Day Weather Forecast

Advertisements
Track Severe Weather on mobile